createdAt,value
2019-03-15T00:00:54.070Z,28.83
2019-03-15T00:03:25.180Z,35.68
2019-03-15T00:05:56.194Z,33.02
2019-03-15T00:08:27.211Z,29.72
2019-03-15T00:10:58.247Z,31.15
2019-03-15T00:13:29.347Z,31.73
2019-03-15T00:16:00.468Z,34.88
2019-03-15T00:18:31.542Z,38.55
2019-03-15T00:21:02.716Z,41.30
2019-03-15T00:23:33.712Z,30.65
2019-03-15T00:26:04.813Z,41.37
2019-03-15T00:28:35.902Z,41.25
2019-03-15T00:31:07.008Z,37.85
2019-03-15T00:33:38.265Z,38.10
2019-03-15T00:36:09.794Z,38.55
2019-03-15T00:38:40.799Z,43.33
2019-03-15T00:41:11.762Z,38.15
2019-03-15T00:43:42.767Z,38.30
2019-03-15T00:46:13.878Z,40.35
2019-03-15T00:48:44.958Z,43.87
2019-03-15T00:51:15.955Z,43.75
2019-03-15T00:53:48.190Z,40.12
2019-03-15T00:56:19.277Z,37.53
2019-03-15T00:58:50.468Z,36.98
2019-03-15T01:01:21.583Z,39.90
2019-03-15T01:03:52.828Z,39.03
2019-03-15T01:06:23.875Z,45.70
2019-03-15T01:08:54.952Z,45.65
2019-03-15T01:11:25.929Z,39.90
2019-03-15T01:13:57.032Z,38.95
2019-03-15T01:16:28.118Z,40.67
2019-03-15T01:18:59.206Z,40.78
2019-03-15T01:21:30.207Z,42.38
2019-03-15T01:24:01.366Z,47.83
2019-03-15T01:26:32.398Z,40.30
2019-03-15T01:29:03.646Z,44.27
2019-03-15T01:31:34.639Z,46.15
2019-03-15T01:34:05.773Z,47.03
2019-03-15T01:36:36.874Z,45.12
2019-03-15T01:39:07.936Z,50.90
2019-03-15T01:41:39.061Z,43.78
2019-03-15T01:44:10.141Z,51.88
2019-03-15T01:46:41.239Z,47.93
2019-03-15T01:49:12.328Z,50.35
2019-03-15T01:51:43.394Z,50.33
2019-03-15T01:54:14.512Z,45.60
2019-03-15T01:56:45.615Z,47.98
2019-03-15T01:59:16.630Z,49.20
2019-03-15T02:01:47.795Z,54.08
2019-03-15T02:04:18.820Z,49.08
2019-03-15T02:06:49.966Z,53.13
2019-03-15T02:09:21.276Z,53.73
2019-03-15T02:11:52.437Z,46.42
2019-03-15T02:14:23.667Z,48.63
2019-03-15T02:16:54.652Z,48.90
2019-03-15T02:19:25.752Z,52.10
2019-03-15T02:21:56.760Z,50.98
2019-03-15T02:24:27.940Z,52.53
2019-03-15T02:26:59.035Z,54.73
2019-03-15T02:29:30.121Z,59.35
2019-03-15T02:32:01.233Z,57.95
2019-03-15T02:34:32.301Z,56.35
2019-03-15T02:37:03.487Z,57.03
2019-03-15T02:39:34.559Z,57.33
2019-03-15T02:42:05.592Z,46.68
2019-03-15T02:44:36.664Z,49.48
2019-03-15T02:47:07.821Z,45.05
2019-03-15T02:49:38.918Z,49.98
2019-03-15T02:52:10.028Z,51.37
2019-03-15T02:54:41.109Z,51.30
2019-03-15T02:57:12.186Z,55.48
2019-03-15T02:59:43.296Z,51.13
2019-03-15T03:02:14.383Z,50.63
2019-03-15T03:04:45.529Z,51.55
2019-03-15T03:07:16.732Z,60.92
2019-03-15T03:09:47.869Z,55.40
2019-03-15T03:12:19.061Z,58.30
2019-03-15T03:14:50.250Z,62.65
2019-03-15T03:17:21.388Z,61.77
2019-03-15T03:19:53.364Z,63.28
2019-03-15T03:22:25.278Z,75.13
2019-03-15T03:24:56.359Z,83.42
2019-03-15T03:27:27.456Z,71.70
2019-03-15T03:29:58.572Z,68.57
2019-03-15T03:32:29.601Z,76.67
2019-03-15T03:35:00.708Z,75.08
2019-03-15T03:37:32.577Z,87.02
2019-03-15T03:40:04.319Z,74.82
2019-03-15T03:42:35.340Z,86.12
2019-03-15T03:45:08.183Z,71.57
2019-03-15T03:47:39.172Z,53.28
2019-03-15T03:50:11.411Z,69.58
2019-03-15T03:52:42.489Z,68.85
2019-03-15T03:55:13.650Z,63.40
2019-03-15T03:57:44.724Z,55.70
2019-03-15T04:00:15.835Z,54.77
2019-03-15T04:02:46.929Z,53.30
2019-03-15T04:05:17.948Z,52.55
2019-03-15T04:07:49.187Z,46.95
2019-03-15T04:10:20.235Z,47.55
2019-03-15T04:12:51.304Z,35.28
2019-03-15T04:15:22.332Z,45.08
2019-03-15T04:17:53.364Z,47.00
2019-03-15T04:20:24.348Z,43.75
2019-03-15T04:22:55.671Z,46.05
2019-03-15T04:25:26.606Z,40.78
2019-03-15T04:27:57.579Z,40.23
2019-03-15T04:30:28.550Z,39.60
2019-03-15T04:32:59.682Z,37.53
2019-03-15T04:35:30.724Z,38.40
2019-03-15T04:38:01.797Z,37.67
2019-03-15T04:40:32.858Z,36.68
2019-03-15T04:43:04.194Z,39.88
2019-03-15T04:45:35.340Z,38.58
2019-03-15T04:48:06.555Z,43.05
2019-03-15T04:50:37.721Z,40.28
2019-03-15T04:53:08.765Z,36.90
2019-03-15T04:55:39.877Z,37.98
2019-03-15T04:58:10.957Z,39.42
2019-03-15T05:00:41.990Z,35.68
2019-03-15T05:03:12.989Z,32.50
2019-03-15T05:05:43.986Z,40.33
2019-03-15T05:08:15.297Z,42.40
2019-03-15T05:10:46.267Z,40.92
2019-03-15T05:13:17.250Z,45.48
2019-03-15T05:15:48.343Z,43.33
2019-03-15T05:18:19.358Z,36.77
2019-03-15T05:20:50.453Z,52.58
2019-03-15T05:23:21.527Z,37.20
2019-03-15T05:25:52.621Z,46.15
2019-03-15T05:28:23.650Z,43.13
2019-03-15T05:30:54.711Z,52.45
2019-03-15T05:33:26.876Z,45.80
2019-03-15T05:35:57.837Z,51.68
2019-03-15T05:38:28.917Z,43.20
2019-03-15T05:41:00.014Z,35.10
2019-03-15T05:43:31.911Z,28.85
2019-03-15T05:46:03.080Z,26.50
2019-03-15T05:48:34.141Z,27.42
2019-03-15T05:51:06.364Z,31.87
2019-03-15T05:53:37.454Z,25.48
2019-03-15T05:56:08.498Z,35.90
2019-03-15T05:58:39.615Z,25.37
2019-03-15T06:01:10.685Z,29.42
2019-03-15T06:03:48.642Z,32.42
2019-03-15T06:06:14.356Z,40.37
2019-03-15T06:08:45.438Z,44.80
2019-03-15T06:11:16.541Z,32.30
2019-03-15T06:13:47.626Z,37.38
2019-03-15T06:16:18.780Z,35.05
2019-03-15T06:18:49.823Z,46.80
2019-03-15T06:21:20.968Z,39.00
2019-03-15T06:23:52.062Z,35.75
2019-03-15T06:26:23.045Z,33.35
2019-03-15T06:28:54.228Z,32.75
2019-03-15T06:31:25.272Z,39.95
2019-03-15T06:33:57.509Z,38.20
2019-03-15T06:36:28.583Z,33.83
2019-03-15T06:38:59.830Z,30.30
2019-03-15T06:41:30.944Z,39.48
2019-03-15T06:44:02.020Z,24.23
2019-03-15T06:46:33.146Z,55.75
2019-03-15T06:49:04.292Z,66.60
2019-03-15T06:51:35.401Z,31.33
2019-03-15T06:54:11.479Z,44.67
2019-03-15T06:56:40.417Z,34.50
2019-03-15T06:59:11.899Z,22.62
2019-03-15T07:01:42.957Z,19.75
2019-03-15T07:04:14.144Z,16.65
2019-03-15T07:06:45.151Z,23.40
2019-03-15T07:09:16.320Z,18.50
2019-03-15T07:11:47.313Z,18.45
2019-03-15T07:14:18.426Z,32.73
2019-03-15T07:16:49.620Z,29.05
2019-03-15T07:19:27.399Z,22.80
2019-03-15T07:21:53.528Z,23.65
2019-03-15T07:24:25.737Z,16.97
2019-03-15T07:26:56.712Z,31.17
2019-03-15T07:29:27.794Z,27.52
2019-03-15T07:31:58.832Z,25.05
2019-03-15T07:34:29.796Z,30.82
2019-03-15T07:37:00.899Z,25.80
2019-03-15T07:39:31.870Z,16.95
2019-03-15T07:42:02.791Z,22.45
2019-03-15T07:44:33.787Z,19.87
2019-03-15T07:47:04.776Z,28.85
2019-03-15T07:49:35.924Z,25.77
2019-03-15T07:52:08.565Z,26.48
2019-03-15T07:54:39.684Z,22.05
2019-03-15T07:57:10.774Z,24.63
2019-03-15T07:59:41.832Z,19.70
2019-03-15T08:02:13.031Z,36.60
2019-03-15T08:04:44.115Z,28.27
2019-03-15T08:07:19.674Z,23.52
2019-03-15T08:09:50.980Z,21.85
2019-03-15T08:12:20.721Z,18.75
2019-03-15T08:14:51.696Z,16.07
2019-03-15T08:17:23.376Z,21.37
2019-03-15T08:19:54.488Z,24.40
2019-03-15T08:22:25.486Z,19.17
2019-03-15T08:24:56.674Z,18.95
2019-03-15T08:27:27.852Z,25.85
2019-03-15T08:29:59.065Z,19.62
2019-03-15T08:32:30.106Z,23.35
2019-03-15T08:35:03.962Z,27.07
2019-03-15T08:37:33.992Z,25.70
2019-03-15T08:40:08.121Z,31.37
2019-03-15T08:42:39.139Z,23.77
2019-03-15T08:45:12.969Z,23.20
2019-03-15T08:47:44.110Z,32.65
2019-03-15T08:50:17.392Z,25.68
2019-03-15T08:52:49.566Z,19.40
2019-03-15T08:55:20.673Z,30.90
2019-03-15T08:57:51.773Z,27.27
2019-03-15T09:00:22.902Z,28.47
2019-03-15T09:02:54.145Z,27.95
2019-03-15T09:05:25.192Z,26.95
2019-03-15T09:07:56.345Z,26.50
2019-03-15T09:10:27.373Z,25.97
2019-03-15T09:12:58.405Z,31.65
2019-03-15T09:15:30.927Z,36.03
2019-03-15T09:18:02.139Z,21.10
2019-03-15T09:20:33.188Z,24.52
2019-03-15T09:23:04.324Z,37.13
2019-03-15T09:25:35.366Z,32.60
2019-03-15T09:28:06.398Z,31.00
2019-03-15T09:30:37.382Z,25.15
2019-03-15T09:33:08.348Z,26.87
2019-03-15T09:35:39.573Z,26.75
2019-03-15T09:38:10.808Z,22.77
2019-03-15T09:40:42.090Z,25.65
2019-03-15T09:43:13.158Z,35.85
2019-03-15T09:45:44.306Z,28.35
2019-03-15T09:48:15.467Z,39.20
2019-03-15T09:50:51.646Z,30.50
2019-03-15T09:53:19.444Z,31.00
2019-03-15T09:55:50.465Z,25.15
2019-03-15T09:58:21.523Z,26.95
2019-03-15T10:00:52.629Z,27.95
2019-03-15T10:03:23.758Z,30.45
2019-03-15T10:05:54.867Z,18.98
2019-03-15T10:08:26.020Z,26.27
2019-03-15T10:10:57.447Z,27.75
2019-03-15T10:13:28.526Z,31.80
2019-03-15T10:15:59.620Z,33.18
2019-03-15T10:18:30.896Z,29.57
2019-03-15T10:21:02.038Z,24.20
2019-03-15T10:23:33.168Z,24.67
2019-03-15T10:26:04.396Z,31.50
2019-03-15T10:28:35.591Z,26.25
2019-03-15T10:31:06.743Z,24.45
2019-03-15T10:33:49.894Z,23.00
2019-03-15T10:36:11.085Z,26.20
2019-03-15T10:38:42.172Z,30.27
2019-03-15T10:41:14.405Z,23.87
2019-03-15T10:43:45.473Z,33.02
2019-03-15T10:46:16.455Z,23.57
2019-03-15T10:48:47.643Z,23.40
2019-03-15T10:51:18.860Z,27.15
2019-03-15T10:53:49.991Z,28.65
2019-03-15T10:56:21.015Z,26.45
2019-03-15T10:58:52.188Z,18.75
2019-03-15T11:01:23.336Z,25.45
2019-03-15T11:03:54.357Z,29.42
2019-03-15T11:06:25.441Z,25.80
2019-03-15T11:08:56.607Z,27.82
2019-03-15T11:11:27.713Z,26.07
2019-03-15T11:13:58.790Z,25.05
2019-03-15T11:16:29.797Z,26.57
2019-03-15T11:19:01.044Z,23.70
2019-03-15T11:21:32.065Z,26.52
2019-03-15T11:24:03.198Z,24.92
2019-03-15T11:26:34.231Z,26.48
2019-03-15T11:29:05.417Z,20.97
2019-03-15T11:31:36.620Z,45.73
2019-03-15T11:34:07.794Z,24.47
2019-03-15T11:36:38.834Z,23.65
2019-03-15T11:39:09.980Z,24.55
2019-03-15T11:41:41.123Z,24.87
2019-03-15T11:44:12.299Z,28.25
2019-03-15T11:46:43.665Z,24.55
2019-03-15T11:49:15.019Z,25.17
2019-03-15T11:51:46.209Z,31.52
2019-03-15T11:54:17.267Z,32.80
2019-03-15T11:56:50.814Z,27.05
2019-03-15T11:59:21.088Z,34.50
2019-03-15T12:02:03.537Z,32.35
2019-03-15T12:04:24.974Z,30.57
2019-03-15T12:06:56.156Z,24.80
2019-03-15T12:09:27.223Z,32.28
2019-03-15T12:11:58.407Z,35.63
2019-03-15T12:14:40.490Z,33.50
2019-03-15T12:17:02.368Z,33.98
2019-03-15T12:19:33.557Z,26.77
2019-03-15T12:22:06.775Z,32.17
2019-03-15T12:24:38.194Z,33.90
2019-03-15T12:27:09.294Z,19.80
2019-03-15T12:29:41.030Z,29.50
2019-03-15T12:32:12.199Z,32.93
2019-03-15T12:34:43.288Z,25.37
2019-03-15T12:37:14.277Z,36.63
2019-03-15T12:39:45.432Z,24.23
2019-03-15T12:42:16.576Z,29.90
2019-03-15T12:44:47.653Z,29.87
2019-03-15T12:47:18.821Z,28.32
2019-03-15T12:49:50.012Z,27.05
2019-03-15T12:52:21.140Z,20.90
2019-03-15T12:54:52.233Z,24.07
2019-03-15T12:57:23.227Z,47.50
2019-03-15T12:59:54.311Z,22.22
2019-03-15T13:02:25.418Z,30.27
2019-03-15T13:04:56.490Z,25.05
2019-03-15T13:07:27.664Z,22.20
2019-03-15T13:09:58.888Z,31.48
2019-03-15T13:12:30.000Z,43.15
2019-03-15T13:15:01.184Z,20.95
2019-03-15T13:17:32.271Z,27.50
2019-03-15T13:20:03.879Z,32.00
2019-03-15T13:22:34.988Z,29.95
2019-03-15T13:25:08.516Z,27.22
2019-03-15T13:27:40.461Z,22.80
2019-03-15T13:30:16.805Z,30.65
2019-03-15T13:32:47.877Z,41.53
2019-03-15T13:35:19.033Z,42.23
2019-03-15T13:37:50.128Z,41.40
2019-03-15T13:40:21.288Z,35.03
2019-03-15T13:42:52.414Z,34.33
2019-03-15T13:45:23.532Z,52.23
2019-03-15T13:47:54.495Z,30.00
2019-03-15T13:50:25.776Z,31.65
2019-03-15T13:52:56.962Z,29.72
2019-03-15T13:55:28.082Z,34.95
2019-03-15T13:57:59.250Z,39.33
2019-03-15T14:00:30.434Z,37.65
2019-03-15T14:03:01.494Z,37.00
2019-03-15T14:05:32.591Z,46.08
2019-03-15T14:08:11.807Z,45.03
2019-03-15T14:10:48.561Z,68.95
2019-03-15T14:13:11.787Z,52.77
2019-03-15T14:15:41.951Z,38.20
2019-03-15T14:18:12.948Z,57.08
2019-03-15T14:20:44.010Z,52.00
2019-03-15T14:23:15.047Z,63.08
2019-03-15T14:25:46.070Z,42.48
2019-03-15T14:28:17.276Z,48.60
2019-03-15T14:30:48.363Z,55.88
2019-03-15T14:33:19.405Z,48.02
2019-03-15T14:35:50.535Z,49.77
2019-03-15T14:38:21.755Z,51.55
2019-03-15T14:40:52.873Z,39.03
2019-03-15T14:43:24.069Z,45.70
2019-03-15T14:45:55.222Z,43.87
2019-03-15T14:48:26.468Z,47.48
2019-03-15T14:50:57.452Z,55.15
2019-03-15T14:53:28.540Z,43.90
2019-03-15T14:56:00.718Z,44.98
2019-03-15T14:58:31.751Z,43.95
2019-03-15T15:01:02.747Z,41.60
2019-03-15T15:03:33.866Z,50.98
2019-03-15T15:06:04.893Z,37.73
2019-03-15T15:08:35.999Z,39.53
2019-03-15T15:11:07.211Z,42.73
2019-03-15T15:13:38.318Z,38.73
2019-03-15T15:16:09.364Z,36.70
2019-03-15T15:18:40.594Z,42.00
2019-03-15T15:21:11.652Z,55.25
2019-03-15T15:23:42.709Z,39.18
2019-03-15T15:26:13.720Z,44.58
2019-03-15T15:28:44.763Z,46.45
2019-03-15T15:31:15.919Z,53.42
2019-03-15T15:33:47.057Z,41.40
2019-03-15T15:36:18.152Z,41.15
2019-03-15T15:38:49.252Z,46.95
2019-03-15T15:41:20.615Z,47.08
2019-03-15T15:43:51.817Z,40.38
2019-03-15T15:46:23.023Z,52.95
2019-03-15T15:48:54.194Z,45.55
2019-03-15T15:51:25.314Z,48.80
2019-03-15T15:53:56.357Z,59.73
2019-03-15T15:56:27.493Z,66.02
2019-03-15T15:58:58.597Z,43.45
2019-03-15T16:01:29.747Z,42.27
2019-03-15T16:04:00.787Z,46.60
2019-03-15T16:06:31.896Z,54.23
2019-03-15T16:09:03.295Z,49.88
2019-03-15T16:11:34.389Z,52.43
2019-03-15T16:14:05.562Z,51.88
2019-03-15T16:16:36.601Z,57.30
2019-03-15T16:19:07.632Z,47.45
2019-03-15T16:21:38.696Z,54.75
2019-03-15T16:24:09.734Z,51.80
2019-03-15T16:26:40.862Z,86.40
2019-03-15T16:29:11.841Z,67.92
2019-03-15T16:31:42.964Z,79.67
2019-03-15T16:34:13.999Z,60.58
2019-03-15T16:36:45.108Z,58.02
2019-03-15T16:39:16.281Z,56.23
2019-03-15T16:41:47.556Z,64.58
2019-03-15T16:44:18.565Z,55.63
2019-03-15T16:46:49.758Z,56.23
2019-03-15T16:49:20.741Z,60.60
2019-03-15T16:51:51.858Z,60.78
2019-03-15T16:54:22.939Z,63.85
2019-03-15T16:56:54.114Z,64.40
2019-03-15T16:59:25.135Z,61.00
2019-03-15T17:01:56.168Z,55.95
2019-03-15T17:04:27.198Z,61.88
2019-03-15T17:07:00.788Z,67.08
2019-03-15T17:09:31.048Z,55.20
2019-03-15T17:12:02.089Z,64.85
2019-03-15T17:14:33.373Z,58.17
2019-03-15T17:17:04.469Z,65.70
2019-03-15T17:19:35.605Z,65.42
2019-03-15T17:22:06.661Z,67.30
2019-03-15T17:24:37.734Z,72.08
2019-03-15T17:27:08.843Z,78.55
2019-03-15T17:29:39.971Z,78.62
2019-03-15T17:32:11.055Z,79.42
2019-03-15T17:34:42.129Z,84.03
2019-03-15T17:37:13.635Z,71.85
2019-03-15T17:39:44.889Z,73.97
2019-03-15T17:42:15.917Z,74.50
2019-03-15T17:44:47.297Z,75.17
2019-03-15T17:47:19.370Z,86.85
2019-03-15T17:49:50.559Z,80.40
2019-03-15T17:52:22.099Z,80.07
2019-03-15T17:54:53.170Z,84.70
2019-03-15T17:57:24.154Z,79.60
2019-03-15T18:00:44.167Z,77.95
2019-03-15T18:03:21.251Z,83.05
2019-03-15T18:05:48.325Z,87.30
2019-03-15T18:08:19.406Z,88.45
2019-03-15T18:10:50.503Z,83.92
2019-03-15T18:13:21.596Z,97.47
2019-03-15T18:15:52.692Z,85.12
2019-03-15T18:18:23.763Z,84.00
2019-03-15T18:20:54.923Z,94.17
2019-03-15T18:23:25.914Z,97.82
2019-03-15T18:25:56.974Z,101.50
2019-03-15T18:28:28.074Z,102.30
2019-03-15T18:30:59.521Z,94.20
2019-03-15T18:33:30.794Z,97.50
2019-03-15T18:36:01.970Z,83.27
2019-03-15T18:38:33.044Z,88.30
2019-03-15T18:41:05.018Z,81.57
2019-03-15T18:43:37.238Z,82.45
2019-03-15T18:46:08.351Z,77.80
2019-03-15T18:48:39.649Z,83.40
2019-03-15T18:51:10.828Z,82.35
2019-03-15T18:53:42.428Z,80.87
2019-03-15T18:56:13.482Z,84.75
2019-03-15T18:58:44.887Z,85.10
2019-03-15T19:01:15.945Z,85.17
2019-03-15T19:03:47.105Z,91.50
2019-03-15T19:06:18.244Z,89.28
2019-03-15T19:08:49.567Z,90.80
2019-03-15T19:11:20.710Z,85.38
2019-03-15T19:13:51.737Z,93.00
2019-03-15T19:16:22.839Z,89.10
2019-03-15T19:18:53.964Z,92.60
2019-03-15T19:21:25.191Z,93.80
2019-03-15T19:23:56.353Z,97.15
2019-03-15T19:26:28.983Z,97.12
2019-03-15T19:29:00.264Z,102.13
2019-03-15T19:31:31.379Z,91.00
2019-03-15T19:34:02.450Z,96.12
2019-03-15T19:36:33.644Z,90.53
2019-03-15T19:39:06.127Z,107.00
2019-03-15T19:41:37.419Z,94.95
2019-03-15T19:44:08.535Z,102.72
2019-03-15T19:46:39.702Z,111.65
2019-03-15T19:49:10.872Z,92.27
2019-03-15T19:51:42.071Z,90.75
2019-03-15T19:54:13.134Z,91.70
2019-03-15T19:56:44.233Z,103.12
2019-03-15T19:59:15.347Z,104.63
2019-03-15T20:01:46.489Z,105.72
2019-03-15T20:04:17.561Z,101.20
2019-03-15T20:06:49.971Z,104.25
2019-03-15T20:09:21.126Z,106.12
2019-03-15T20:11:52.278Z,98.52
2019-03-15T20:14:23.579Z,98.78
2019-03-15T20:16:54.683Z,107.63
2019-03-15T20:19:25.711Z,96.55
2019-03-15T20:21:56.864Z,116.50
2019-03-15T20:24:28.071Z,166.03
2019-03-15T20:26:59.508Z,134.95
2019-03-15T20:29:30.747Z,114.15
2019-03-15T20:32:01.837Z,102.45
2019-03-15T20:34:33.017Z,130.00
2019-03-15T20:37:04.241Z,139.43
2019-03-15T20:39:35.426Z,131.67
2019-03-15T20:42:06.488Z,134.47
2019-03-15T20:44:37.607Z,129.72
2019-03-15T20:47:08.777Z,106.37
2019-03-15T20:49:39.900Z,107.65
2019-03-15T20:52:11.079Z,107.60
2019-03-15T20:54:42.259Z,105.90
2019-03-15T20:57:13.284Z,102.27
2019-03-15T20:59:44.383Z,91.63
2019-03-15T21:02:15.433Z,107.92
2019-03-15T21:04:46.461Z,101.47
2019-03-15T21:07:18.050Z,105.37
2019-03-15T21:09:49.225Z,99.10
2019-03-15T21:12:20.260Z,101.55
2019-03-15T21:14:51.443Z,117.87
2019-03-15T21:17:22.619Z,126.20
2019-03-15T21:19:53.680Z,102.27
2019-03-15T21:22:24.834Z,107.83
2019-03-15T21:24:55.911Z,109.00
2019-03-15T21:27:27.135Z,112.88
2019-03-15T21:29:58.302Z,109.03
2019-03-15T21:32:30.441Z,101.58
2019-03-15T21:35:05.838Z,93.05
2019-03-15T21:37:37.939Z,92.95
2019-03-15T21:40:13.938Z,97.45
2019-03-15T21:42:44.930Z,106.70
2019-03-15T21:45:16.124Z,100.05
2019-03-15T21:47:47.226Z,115.28
2019-03-15T21:50:19.913Z,107.72
2019-03-15T21:52:50.960Z,109.70
2019-03-15T21:55:22.104Z,102.90
2019-03-15T21:57:53.243Z,112.37
2019-03-15T22:00:24.381Z,116.55
2019-03-15T22:02:55.528Z,105.05
2019-03-15T22:05:26.716Z,108.57
2019-03-15T22:07:57.860Z,99.07
2019-03-15T22:10:29.102Z,107.52
2019-03-15T22:13:00.208Z,109.63
2019-03-15T22:15:31.353Z,117.70
2019-03-15T22:18:02.481Z,134.82
2019-03-15T22:20:33.784Z,156.07
2019-03-15T22:23:04.773Z,163.43
2019-03-15T22:25:35.798Z,164.88
2019-03-15T22:28:06.971Z,137.22
2019-03-15T22:30:37.966Z,132.50
2019-03-15T22:33:08.947Z,135.63
2019-03-15T22:35:39.990Z,123.33
2019-03-15T22:38:11.136Z,121.13
2019-03-15T22:40:42.270Z,115.08
2019-03-15T22:43:13.629Z,120.65
2019-03-15T22:45:44.776Z,123.65
2019-03-15T22:48:15.819Z,119.20
2019-03-15T22:50:46.958Z,122.85
2019-03-15T22:53:20.878Z,111.03
2019-03-15T22:55:51.898Z,116.83
2019-03-15T22:58:22.937Z,121.90
2019-03-15T23:00:54.175Z,121.05
2019-03-15T23:03:25.389Z,120.45
2019-03-15T23:05:56.363Z,108.87
2019-03-15T23:08:27.535Z,125.78
2019-03-15T23:10:58.674Z,124.42
2019-03-15T23:13:29.709Z,122.85
2019-03-15T23:16:00.936Z,111.83
2019-03-15T23:18:32.536Z,113.70
2019-03-15T23:21:04.515Z,121.13
2019-03-15T23:23:35.501Z,113.80
2019-03-15T23:26:06.585Z,114.00
2019-03-15T23:28:38.725Z,127.72
2019-03-15T23:31:09.871Z,151.70
2019-03-15T23:33:41.073Z,169.70
2019-03-15T23:36:12.078Z,174.42
2019-03-15T23:38:43.183Z,165.75
2019-03-15T23:41:14.256Z,173.60
2019-03-15T23:43:45.386Z,184.03
2019-03-15T23:46:16.527Z,155.25
2019-03-15T23:48:47.841Z,148.85
2019-03-15T23:51:18.916Z,186.45
2019-03-15T23:53:50.018Z,155.72
2019-03-15T23:56:21.239Z,188.42
2019-03-15T23:58:52.345Z,198.30
